ADDS METAR Data INFO
IDs: Format: Raw Decoded Include TAF

Data at: 0729 UTC 18 Oct 2017

KBBB 180714Z AUTO 20008KT 10SM CLR 11/06 A2979 RMK AO2
KBBB 180654Z AUTO 21008KT 10SM CLR 11/06 A2980 RMK AO2
KBBB 180634Z AUTO 21010KT 10SM CLR 12/06 A2979 RMK AO2
KBBB 180613Z AUTO 21009KT 10SM CLR 12/06 A2980 RMK AO2
KBBB 180554Z AUTO 21009KT 10SM CLR 11/05 A2981 RMK AO2
KBBB 180533Z AUTO 21009KT 10SM CLR 12/05 A2982 RMK AO2
KBBB 180514Z AUTO 21008KT 10SM CLR 12/05 A2982 RMK AO2
KBBB 180453Z AUTO 20009KT 10SM CLR 12/05 A2983 RMK AO2
KBBB 180433Z AUTO 21008KT 10SM CLR 12/05 A2984 RMK AO2
KBBB 180413Z AUTO 21007KT 10SM CLR 12/05 A2984 RMK AO2
KBBB 180353Z AUTO 21007KT 10SM CLR 13/05 A2985 RMK AO2
KBBB 180334Z AUTO 21007KT 10SM CLR 13/05 A2985 RMK AO2
KBBB 180314Z AUTO 21007KT 10SM CLR 13/04 A2985 RMK AO2
KBBB 180254Z AUTO 21007KT 10SM CLR 13/04 A2985 RMK AO2
KBBB 180234Z AUTO 21007KT 10SM CLR 12/04 A2985 RMK AO2
KBBB 180214Z AUTO 20009KT 10SM CLR 14/04 A2985 RMK AO2
KBBB 180153Z AUTO 20008KT 10SM CLR 14/04 A2986 RMK AO2
KBBB 180134Z AUTO 20008KT 10SM CLR 15/04 A2986 RMK AO2
KBBB 180114Z AUTO 20008KT 10SM CLR 16/04 A2986 RMK AO2
KBBB 180054Z AUTO 20007KT 10SM CLR 16/04 A2987 RMK AO2
KBBB 180034Z AUTO 20007KT 10SM CLR 16/04 A2987 RMK AO2
KBBB 180014Z AUTO 20006KT 10SM CLR 17/04 A2987 RMK AO2
KBBB 172354Z AUTO 18006KT 10SM CLR 19/03 A2987 RMK AO2
KBBB 172333Z AUTO 21007KT 10SM CLR 18/04 A2987 RMK AO2
KBBB 172314Z AUTO 22007KT 10SM CLR 19/04 A2987 RMK AO2
KBBB 172253Z AUTO 23005KT 10SM CLR 22/04 A2987 RMK AO2
KBBB 172234Z AUTO 24007KT 10SM CLR 23/03 A2988 RMK AO2
KBBB 172213Z AUTO 26006KT 10SM CLR 23/03 A2989 RMK AO2
KBBB 172154Z AUTO 24008KT 10SM CLR 24/02 A2989 RMK AO2
KBBB 172133Z AUTO 25009KT 10SM CLR 24/02 A2989 RMK AO2
KBBB 172113Z AUTO 26010KT 10SM CLR 24/02 A2990 RMK AO2
KBBB 172054Z AUTO 25009KT 10SM CLR 24/02 A2991 RMK AO2
KBBB 172033Z AUTO 26007KT 10SM CLR 24/02 A2991 RMK AO2
KBBB 172014Z AUTO 24009KT 10SM CLR 24/04 A2992 RMK AO2
KBBB 171953Z AUTO 25011KT 10SM CLR 23/03 A2992 RMK AO2
KBBB 171933Z AUTO 24008KT 10SM CLR 23/03 A2993 RMK AO2
KBBB 171914Z AUTO 23008KT 10SM CLR 23/03 A2994 RMK AO2
KBBB 171853Z AUTO 25008KT 10SM CLR 22/03 A2995 RMK AO2
KBBB 171833Z AUTO 24007KT 10SM CLR 22/03 A2996 RMK AO2
KBBB 171814Z AUTO 24005KT 10SM CLR 21/04 A2997 RMK AO2
KBBB 171753Z AUTO 24007KT 10SM CLR 21/04 A2998 RMK AO2
KBBB 171734Z AUTO 23006KT 10SM CLR 19/06 A2999 RMK AO2
KBBB 171713Z AUTO 22006KT 10SM CLR 18/06 A2999 RMK AO2
KBBB 171654Z AUTO 21005KT 10SM CLR 18/06 A3000 RMK AO2
KBBB 171634Z AUTO 18004KT 10SM CLR 17/06 A3001 RMK AO2
KBBB 171614Z AUTO 19004KT 10SM CLR 16/07 A3001 RMK AO2
KBBB 171554Z AUTO 18003KT 10SM CLR 14/06 A3002 RMK AO2
KBBB 171534Z AUTO 00000KT 10SM CLR 13/06 A3002 RMK AO2
KBBB 171513Z AUTO 00000KT 10SM CLR 12/07 A3002 RMK AO2
KBBB 171454Z AUTO 00000KT 10SM CLR 09/07 A3002 RMK AO2
KBBB 171433Z AUTO 21003KT 10SM CLR 08/06 A3001 RMK AO2
KBBB 171414Z AUTO 00000KT 10SM CLR 06/05 A3002 RMK AO2
KBBB 171354Z AUTO 00000KT 10SM CLR 03/02 A3002 RMK AO2
KBBB 171333Z AUTO 00000KT 10SM CLR 01/01 A3001 RMK AO2
KBBB 171314Z AUTO 00000KT 10SM CLR 01/00 A3001 RMK AO2
KBBB 171254Z AUTO 00000KT 10SM CLR 01/00 A3000 RMK AO2
KBBB 171233Z AUTO 00000KT 1 1/2SM BR CLR 01/01 A3000 RMK AO2 VIS 3/4V5
KBBB 171214Z AUTO 20003KT 10SM CLR 01/01 A3000 RMK AO2
KBBB 171154Z AUTO 00000KT 2SM BR CLR 02/01 A3001 RMK AO2 VIS 1 1/4V5
KBBB 171134Z AUTO 00000KT 10SM CLR 01/01 A3001 RMK AO2
KBBB 171113Z AUTO 00000KT 3SM BR CLR 02/01 A3001 RMK AO2
KBBB 171054Z AUTO 00000KT 7SM CLR 02/01 A3001 RMK AO2
KBBB 171034Z AUTO 00000KT 10SM CLR 02/01 A3000 RMK AO2
KBBB 171013Z AUTO 00000KT 10SM CLR 02/01 A3000 RMK AO2
KBBB 170953Z AUTO 00000KT 4SM BR CLR 02/01 A2999 RMK AO2
KBBB 170934Z AUTO 00000KT 10SM CLR 03/02 A2998 RMK AO2
KBBB 170913Z AUTO 22003KT 10SM CLR 03/02 A2998 RMK AO2
KBBB 170854Z AUTO 21003KT 10SM CLR 04/03 A2998 RMK AO2
KBBB 170833Z AUTO 00000KT 10SM CLR 04/03 A2998 RMK AO2
KBBB 170813Z AUTO 00000KT 10SM CLR 03/02 A2998 RMK AO2
KBBB 170754Z AUTO 00000KT 10SM CLR 03/02 A2998 RMK AO2
KBBB 170734Z AUTO 00000KT 10SM CLR 04/03 A2998 RMK AO2
KBBB 170713Z AUTO 00000KT 10SM CLR 04/03 A2998 RMK AO2
KBBB 170654Z AUTO 00000KT 10SM CLR 04/03 A2998 RMK AO2
KBBB 170633Z AUTO 00000KT 10SM CLR 05/04 A2998 RMK AO2
KBBB 170613Z AUTO 00000KT 10SM CLR 06/04 A2997 RMK AO2
KBBB 170554Z AUTO 00000KT 10SM CLR 06/04 A2997 RMK AO2
KBBB 170534Z AUTO 00000KT 10SM CLR 08/04 A2997 RMK AO2
KBBB 170513Z AUTO 27003KT 10SM CLR 07/04 A2996 RMK AO2
KBBB 170454Z AUTO 27003KT 10SM CLR 08/04 A2996 RMK AO2
KBBB 170434Z AUTO 00000KT 10SM CLR 08/04 A2996 RMK AO2
KBBB 170413Z AUTO 00000KT 10SM CLR 08/04 A2996 RMK AO2
KBBB 170353Z AUTO 28006KT 10SM CLR 09/04 A2996 RMK AO2
KBBB 170334Z AUTO 27004KT 10SM CLR 10/04 A2996 RMK AO2
KBBB 170313Z AUTO 26005KT 10SM CLR 11/04 A2996 RMK AO2
KBBB 170253Z AUTO 26005KT 10SM CLR 11/04 A2996 RMK AO2
KBBB 170233Z AUTO 26004KT 10SM CLR 11/04 A2997 RMK AO2
KBBB 170214Z AUTO 25005KT 10SM CLR 09/04 A2996 RMK AO2
KBBB 170153Z AUTO 25005KT 10SM CLR 09/04 A2996 RMK AO2
KBBB 170133Z AUTO 25005KT 10SM CLR 12/04 A2995 RMK AO2
KBBB 170113Z AUTO 25006KT 10SM CLR 13/04 A2996 RMK AO2
KBBB 170053Z AUTO 24005KT 10SM CLR 13/04 A2996 RMK AO2
KBBB 170034Z AUTO 25003KT 10SM CLR 12/04 A2996 RMK AO2
KBBB 170014Z AUTO 23004KT 10SM CLR 14/04 A2996 RMK AO2
KBBB 162354Z AUTO 21005KT 10SM CLR 16/03 A2995 RMK AO2
KBBB 162334Z AUTO 20004KT 10SM CLR 16/03 A2996 RMK AO2
KBBB 162314Z AUTO 24006KT 10SM CLR 17/04 A2996 RMK AO2
KBBB 162254Z AUTO 25008KT 10SM CLR 19/03 A2996 RMK AO2
KBBB 162234Z AUTO 25008KT 10SM CLR 20/02 A2996 RMK AO2
KBBB 162214Z AUTO 25010KT 10SM CLR 21/02 A2996 RMK AO2
KBBB 162154Z AUTO 26011G16KT 10SM CLR 21/02 A2997 RMK AO2
KBBB 162133Z AUTO 24012G17KT 10SM CLR 21/01 A2997 RMK AO2
KBBB 162114Z AUTO 25013G17KT 10SM CLR 21/01 A2998 RMK AO2
KBBB 162053Z AUTO 25012KT 10SM CLR 21/01 A2999 RMK AO2
KBBB 162033Z AUTO 25010G15KT 10SM CLR 21/01 A2999 RMK AO2
KBBB 162014Z AUTO 24011KT 10SM CLR 21/02 A3000 RMK AO2
KBBB 161954Z AUTO 24010G17KT 10SM CLR 20/02 A3001 RMK AO2
KBBB 161933Z AUTO 25014G18KT 10SM CLR 20/01 A3002 RMK AO2